Time;durP1;ratioP1;P1;durP2;ratioP2;P2;SDS_P1;SDS_P2;PMS_P1;PMS_P2;Temp;Humidity;BMP_temperature;BMP_pressure;BME280_temperature;BME280_humidity;BME280_pressure;Samples;Min_cycle;Max_cycle;Signal;HPM_P1;HPM_P2
2022/07/10 00:01:02;;;;;;;4.82;1.27;;;16.60;99.90;;;;;;5062475;28;20083;-68
2022/07/10 00:03:29;;;;;;;3.90;1.50;;;16.60;99.90;;;;;;5071127;28;20037;-68
2022/07/10 00:05:56;;;;;;;1.65;1.50;;;16.60;99.90;;;;;;5071752;28;20521;-68
2022/07/10 00:08:23;;;;;;;4.25;1.65;;;16.50;99.90;;;;;;5071706;28;20049;-68
2022/07/10 00:10:50;;;;;;;3.33;1.50;;;16.50;99.90;;;;;;5061377;28;20029;-68
2022/07/10 00:13:16;;;;;;;2.97;1.65;;;16.40;99.90;;;;;;5070780;28;20048;-68
2022/07/10 00:15:43;;;;;;;4.60;1.60;;;16.40;99.90;;;;;;5063023;28;20041;-68
2022/07/10 00:18:10;;;;;;;2.47;1.60;;;16.40;99.90;;;;;;5063952;28;20047;-67
2022/07/10 00:20:37;;;;;;;2.03;1.35;;;16.40;99.90;;;;;;5059977;28;20128;-68
2022/07/10 00:23:03;;;;;;;2.58;1.67;;;16.40;99.90;;;;;;5063093;28;20045;-68
2022/07/10 00:25:30;;;;;;;1.75;1.40;;;16.40;99.90;;;;;;5052786;28;20101;-68
2022/07/10 00:27:57;;;;;;;1.92;1.30;;;16.40;99.90;;;;;;5071401;28;20126;-68
2022/07/10 00:30:24;;;;;;;4.22;1.95;;;16.40;99.90;;;;;;5070064;28;20451;-68
2022/07/10 00:32:51;;;;;;;3.20;1.50;;;16.40;99.90;;;;;;5071188;28;20048;-68
2022/07/10 00:35:17;;;;;;;3.03;1.55;;;16.50;99.90;;;;;;5070203;28;20055;-67
2022/07/10 00:37:44;;;;;;;5.90;2.05;;;16.40;99.90;;;;;;5068782;28;20040;-68
2022/07/10 00:40:12;;;;;;;5.88;1.63;;;16.40;99.90;;;;;;5065269;28;20532;-68
2022/07/10 00:42:38;;;;;;;2.42;1.70;;;16.50;99.90;;;;;;5071090;28;20052;-67
2022/07/10 00:45:06;;;;;;;1.75;1.38;;;16.40;99.90;;;;;;5067187;28;20041;-68
2022/07/10 00:47:33;;;;;;;3.22;1.77;;;16.40;99.90;;;;;;5066475;28;20492;-68
2022/07/10 00:49:59;;;;;;;4.30;2.00;;;16.30;99.90;;;;;;5082046;28;20040;-68
2022/07/10 00:52:26;;;;;;;2.42;1.80;;;16.20;99.90;;;;;;5091778;28;20047;-67
2022/07/10 00:54:53;;;;;;;3.30;1.52;;;16.10;99.90;;;;;;5089542;28;20503;-68
2022/07/10 00:57:21;;;;;;;3.40;1.60;;;16.10;99.90;;;;;;5064861;28;20060;-68
2022/07/10 00:59:49;;;;;;;4.13;1.50;;;16.10;99.90;;;;;;5078707;28;20062;-68
2022/07/10 01:02:16;;;;;;;6.30;1.85;;;16.10;99.90;;;;;;5071167;28;20512;-68
2022/07/10 01:04:43;;;;;;;4.40;1.80;;;16.20;99.90;;;;;;5071113;28;20041;-67
2022/07/10 01:07:10;;;;;;;3.28;2.17;;;16.20;99.90;;;;;;5057358;28;20062;-68
2022/07/10 01:09:37;;;;;;;6.07;2.35;;;16.10;99.90;;;;;;5082732;28;20097;-68
2022/07/10 01:12:05;;;;;;;4.43;2.20;;;16.00;99.90;;;;;;5091061;28;20051;-67
2022/07/10 01:14:31;;;;;;;;;;;16.00;99.90;;;;;;5086807;28;20060;-68
2022/07/10 01:16:59;;;;;;;7.60;2.00;;;16.00;99.90;;;;;;5082160;28;19943;-67
2022/07/10 01:19:26;;;;;;;;;;;16.10;99.90;;;;;;5091339;28;20082;-67
2022/07/10 01:21:53;;;;;;;2.60;1.60;;;16.10;99.90;;;;;;5088307;28;19927;-67
2022/07/10 01:24:19;;;;;;;3.58;1.40;;;16.00;99.90;;;;;;5079373;28;20052;-67
2022/07/10 01:26:46;;;;;;;2.92;1.85;;;15.90;99.90;;;;;;5088504;28;20048;-67
2022/07/10 01:29:13;;;;;;;4.53;1.77;;;15.90;99.90;;;;;;5091180;28;20044;-68
2022/07/10 01:31:40;;;;;;;5.38;2.15;;;15.80;99.90;;;;;;5085875;28;20063;-68
2022/07/10 01:34:11;;;;;;;3.65;1.92;;;15.80;99.90;;;;;;5082593;28;20052;-68
2022/07/10 01:36:38;;;;;;;2.83;1.70;;;15.80;99.90;;;;;;5091096;28;20040;-67
2022/07/10 01:39:06;;;;;;;3.15;1.88;;;15.80;99.90;;;;;;5091167;28;20090;-68
2022/07/10 01:41:34;;;;;;;4.00;1.80;;;15.70;99.90;;;;;;5077937;28;20078;-68
2022/07/10 01:44:01;;;;;;;2.45;1.70;;;15.70;99.90;;;;;;5090727;28;20040;-68
2022/07/10 01:46:29;;;;;;;3.47;1.80;;;15.70;99.90;;;;;;5092253;28;20040;-68
2022/07/10 01:48:56;;;;;;;;;;;15.70;99.90;;;;;;5087863;28;20040;-68
2022/07/10 01:51:22;;;;;;;6.22;1.70;;;15.70;99.90;;;;;;5088746;28;19920;-68
2022/07/10 01:53:49;;;;;;;4.93;1.42;;;15.70;99.90;;;;;;5094749;28;20044;-67
2022/07/10 01:56:16;;;;;;;1.85;1.48;;;15.70;99.90;;;;;;5087431;28;20104;-67
2022/07/10 01:58:43;;;;;;;;;;;15.70;99.90;;;;;;5086808;28;20051;-68
2022/07/10 02:01:11;;;;;;;5.57;1.70;;;15.70;99.90;;;;;;5094213;28;19969;-68
2022/07/10 02:06:23;;;;;;;2.40;2.00;;;15.70;99.90;;;;;;5083838;28;20047;-67
2022/07/10 02:08:50;;;;;;;3.15;1.95;;;15.70;99.90;;;;;;5094564;28;20044;-67
2022/07/10 02:11:17;;;;;;;3.65;2.40;;;15.60;99.90;;;;;;5094009;28;20046;-66
2022/07/10 02:13:45;;;;;;;5.60;2.42;;;15.50;99.90;;;;;;5083760;28;20044;-67
2022/07/10 02:16:11;;;;;;;;;;;15.40;99.90;;;;;;5087389;28;20058;-67
2022/07/10 02:18:39;;;;;;;4.88;2.30;;;15.30;99.90;;;;;;5094603;28;19939;-67
2022/07/10 02:21:07;;;;;;;4.75;3.20;;;15.30;99.90;;;;;;5085424;28;20040;-67
2022/07/10 02:23:34;;;;;;;6.80;3.00;;;15.20;99.90;;;;;;5090360;28;20051;-67
2022/07/10 02:26:01;;;;;;;7.47;3.00;;;15.20;99.90;;;;;;5094378;28;20048;-66
2022/07/10 02:28:29;;;;;;;5.28;3.45;;;15.20;99.90;;;;;;5094372;28;20097;-67
2022/07/10 02:30:56;;;;;;;7.70;4.53;;;15.10;99.90;;;;;;5083008;28;20055;-67
2022/07/10 02:33:23;;;;;;;7.25;4.75;;;15.10;99.90;;;;;;5088579;28;20093;-66
2022/07/10 02:35:49;;;;;;;7.57;4.43;;;15.10;99.90;;;;;;5094187;28;20093;-66
2022/07/10 02:38:16;;;;;;;12.95;6.07;;;15.10;99.90;;;;;;5087184;28;20049;-67
2022/07/10 02:40:43;;;;;;;12.93;6.07;;;15.00;99.90;;;;;;5090858;28;20105;-67
2022/07/10 02:43:09;;;;;;;13.48;6.18;;;15.00;99.90;;;;;;5094155;28;20777;-67
2022/07/10 02:45:36;;;;;;;11.00;6.68;;;15.00;99.90;;;;;;5092752;28;20055;-67
2022/07/10 02:48:10;;;;;;;8.25;6.15;;;15.00;99.90;;;;;;5074584;28;20443;-67
2022/07/10 02:50:36;;;;;;;10.73;6.82;;;15.00;99.90;;;;;;5073441;28;20040;-67
2022/07/10 02:53:03;;;;;;;9.77;6.60;;;15.00;99.90;;;;;;5073913;28;20056;-67
2022/07/10 02:55:31;;;;;;;12.10;6.85;;;15.00;99.90;;;;;;5073030;28;20053;-67
2022/07/10 02:58:03;;;;;;;9.20;7.05;;;15.00;99.90;;;;;;5083593;28;20052;-67
2022/07/10 03:00:30;;;;;;;11.63;7.28;;;14.90;99.90;;;;;;5099137;22;20044;-72
2022/07/10 03:02:57;;;;;;;11.98;7.47;;;14.90;99.90;;;;;;5072751;28;20064;-72
2022/07/10 03:05:24;;;;;;;11.65;8.35;;;14.90;99.90;;;;;;5073351;28;20052;-72
2022/07/10 03:07:50;;;;;;;10.98;7.68;;;14.80;99.90;;;;;;5073559;28;20467;-72
2022/07/10 03:10:17;;;;;;;15.70;8.90;;;14.80;99.90;;;;;;5072265;28;20044;-70
2022/07/10 03:12:44;;;;;;;14.45;8.77;;;14.80;99.90;;;;;;5073321;28;20049;-71
2022/07/10 03:15:11;;;;;;;14.05;8.43;;;14.90;99.90;;;;;;5073075;28;20056;-71
2022/07/10 03:17:38;;;;;;;13.57;8.38;;;14.90;99.90;;;;;;5072983;28;20049;-71
2022/07/10 03:20:07;;;;;;;12.25;8.20;;;14.90;99.90;;;;;;5072084;28;20405;-71
2022/07/10 03:22:36;;;;;;;15.93;9.95;;;14.90;99.90;;;;;;5073136;28;20505;-71
2022/07/10 03:25:03;;;;;;;12.63;8.55;;;14.90;99.90;;;;;;5073162;28;20052;-71
2022/07/10 03:27:30;;;;;;;;;;;14.90;99.90;;;;;;5073103;28;20037;-71
2022/07/10 03:29:57;;;;;;;14.55;8.90;;;14.90;99.90;;;;;;5072379;28;19920;-71
2022/07/10 03:32:23;;;;;;;12.00;8.43;;;14.90;99.90;;;;;;5072994;28;20036;-71
2022/07/10 03:34:50;;;;;;;14.13;9.85;;;14.90;99.90;;;;;;5073055;28;20386;-72
2022/07/10 03:37:17;;;;;;;14.18;9.20;;;14.90;99.90;;;;;;5072086;28;20041;-72
2022/07/10 03:39:44;;;;;;;14.60;9.77;;;14.90;99.90;;;;;;5072744;28;20090;-71
2022/07/10 03:42:10;;;;;;;15.75;10.70;;;15.00;99.90;;;;;;5072578;28;20048;-72
2022/07/10 03:44:37;;;;;;;14.25;9.40;;;14.90;99.90;;;;;;5072795;28;20048;-72
2022/07/10 03:47:04;;;;;;;12.00;9.43;;;14.90;99.90;;;;;;5072012;28;20033;-72
2022/07/10 03:49:31;;;;;;;17.10;10.13;;;14.90;99.90;;;;;;5072426;28;20059;-71
2022/07/10 03:52:01;;;;;;;13.35;10.23;;;14.90;99.90;;;;;;5072173;28;20041;-71
2022/07/10 03:54:29;;;;;;;13.77;9.52;;;14.90;99.90;;;;;;5072609;28;20045;-72
2022/07/10 03:59:42;;;;;;;14.93;10.38;;;14.90;99.90;;;;;;5072238;28;20037;-71
2022/07/10 04:02:09;;;;;;;13.18;9.93;;;14.90;99.90;;;;;;5072005;28;20118;-71
2022/07/10 04:04:36;;;;;;;15.25;9.80;;;14.90;99.90;;;;;;5071864;28;20062;-72
2022/07/10 04:07:04;;;;;;;14.35;9.38;;;14.90;99.90;;;;;;5064027;28;20044;-72
2022/07/10 04:09:31;;;;;;;15.15;10.13;;;14.90;99.90;;;;;;5071973;28;20049;-71
2022/07/10 04:11:58;;;;;;;15.95;10.38;;;14.90;99.90;;;;;;5071330;28;20044;-72
2022/07/10 04:14:25;;;;;;;102.57;14.85;;;14.90;99.90;;;;;;5071913;28;20413;-72
2022/07/10 04:16:51;;;;;;;17.05;10.50;;;14.90;99.90;;;;;;5072087;28;20667;-72
2022/07/10 04:19:18;;;;;;;15.65;11.15;;;14.90;99.90;;;;;;5072163;28;20037;-72
2022/07/10 04:21:45;;;;;;;16.35;11.75;;;14.90;99.90;;;;;;5071553;28;20052;-72
2022/07/10 04:24:12;;;;;;;19.13;11.85;;;14.80;99.90;;;;;;5071839;28;20045;-72
2022/07/10 04:26:38;;;;;;;21.20;12.00;;;14.80;99.90;;;;;;5072000;28;20514;-72
2022/07/10 04:29:05;;;;;;;19.63;12.38;;;14.80;99.90;;;;;;5072002;28;20056;-72
2022/07/10 04:31:32;;;;;;;22.55;12.73;;;14.90;99.90;;;;;;5070792;28;20040;-72
2022/07/10 04:33:59;;;;;;;21.42;12.43;;;14.90;99.90;;;;;;5050458;28;20057;-72
2022/07/10 04:36:26;;;;;;;17.33;12.15;;;15.00;99.90;;;;;;5051910;28;20041;-72
2022/07/10 04:38:52;;;;;;;20.90;12.80;;;14.80;99.90;;;;;;5057091;28;20045;-72
2022/07/10 04:41:19;;;;;;;14.57;11.10;;;14.90;99.90;;;;;;5071294;28;20071;-72
2022/07/10 04:43:46;;;;;;;17.15;12.27;;;14.90;99.90;;;;;;5071702;28;20047;-72
2022/07/10 04:46:12;;;;;;;18.85;12.48;;;14.90;99.90;;;;;;5071712;28;20048;-72
2022/07/10 04:48:39;;;;;;;15.95;11.60;;;15.00;99.90;;;;;;5071003;28;20139;-72
2022/07/10 04:51:08;;;;;;;15.50;11.73;;;15.00;99.90;;;;;;5071077;28;20094;-72
2022/07/10 04:53:35;;;;;;;18.83;11.23;;;15.00;99.90;;;;;;5071712;28;20400;-73
2022/07/10 04:56:02;;;;;;;16.02;11.77;;;15.10;99.90;;;;;;5071620;28;20044;-72
2022/07/10 04:58:29;;;;;;;18.25;12.35;;;15.20;99.90;;;;;;5070796;28;20552;-72
2022/07/10 05:00:56;;;;;;;17.20;11.27;;;15.10;99.90;;;;;;5063255;28;20436;-72
2022/07/10 05:03:22;;;;;;;16.75;10.75;;;15.10;99.90;;;;;;5051613;28;20045;-72
2022/07/10 05:05:49;;;;;;;15.90;10.57;;;15.20;99.90;;;;;;5053710;28;20052;-72
2022/07/10 05:08:16;;;;;;;14.45;11.35;;;15.10;99.90;;;;;;5071365;28;20056;-71
2022/07/10 05:10:43;;;;;;;15.00;11.25;;;15.10;99.90;;;;;;5070964;28;20055;-72
2022/07/10 05:13:11;;;;;;;17.35;11.05;;;15.20;99.90;;;;;;5071387;28;20044;-72
2022/07/10 05:15:38;;;;;;;20.85;11.60;;;15.20;99.90;;;;;;5070842;28;20043;-72
2022/07/10 05:18:05;;;;;;;;;;;15.20;99.90;;;;;;5063790;28;20075;-72
2022/07/10 05:20:33;;;;;;;15.45;10.73;;;15.20;99.90;;;;;;5070851;28;19928;-72
2022/07/10 05:23:00;;;;;;;16.13;10.73;;;15.20;99.90;;;;;;5075237;28;20036;-72
2022/07/10 05:25:30;;;;;;;14.00;10.77;;;15.20;99.90;;;;;;5074700;28;20040;-72
2022/07/10 05:27:57;;;;;;;15.32;11.65;;;15.30;99.90;;;;;;5075259;28;20123;-73
2022/07/10 05:30:24;;;;;;;;;;;15.40;99.90;;;;;;5075356;28;20116;-72
2022/07/10 05:32:50;;;;;;;16.90;11.52;;;15.50;99.90;;;;;;5074787;28;19920;-72
2022/07/10 05:35:17;;;;;;;13.80;10.48;;;15.50;99.90;;;;;;5074937;28;20070;-72
2022/07/10 05:37:44;;;;;;;13.60;9.95;;;15.50;99.90;;;;;;5075324;28;20048;-72
2022/07/10 05:40:11;;;;;;;15.60;10.82;;;15.50;99.90;;;;;;5074613;28;20059;-72
2022/07/10 05:42:38;;;;;;;14.18;10.15;;;15.50;99.90;;;;;;5075179;28;20043;-72
2022/07/10 05:45:06;;;;;;;12.55;9.88;;;15.50;99.90;;;;;;5074516;28;20523;-72
2022/07/10 05:47:33;;;;;;;15.02;10.52;;;15.50;99.90;;;;;;5074948;28;20047;-72
2022/07/10 05:50:00;;;;;;;15.25;10.30;;;15.50;99.90;;;;;;5074573;28;20057;-72
2022/07/10 05:52:27;;;;;;;15.98;10.68;;;15.50;99.90;;;;;;5074182;28;20047;-73
2022/07/10 05:54:56;;;;;;;13.35;10.32;;;15.50;99.90;;;;;;5074805;28;20056;-72
2022/07/10 05:57:23;;;;;;;14.38;10.77;;;15.50;99.90;;;;;;5074814;28;20448;-72
2022/07/10 05:59:50;;;;;;;15.23;11.05;;;15.50;99.90;;;;;;5074096;28;20048;-72
2022/07/10 06:02:17;;;;;;;18.90;11.18;;;15.50;99.90;;;;;;5053533;28;20412;-72
2022/07/10 06:04:50;;;;;;;22.77;11.80;;;15.60;99.90;;;;;;5071287;28;20079;-72
2022/07/10 06:07:17;;;;;;;15.73;11.20;;;15.70;99.90;;;;;;5068958;28;20051;-73
2022/07/10 06:09:44;;;;;;;;;;;15.60;99.90;;;;;;5070123;28;20041;-72
2022/07/10 06:12:11;;;;;;;16.40;9.68;;;15.60;99.90;;;;;;5066737;28;19924;-73
2022/07/10 06:14:38;;;;;;;14.27;10.55;;;15.70;99.90;;;;;;5055046;28;20048;-72
2022/07/10 06:17:04;;;;;;;18.67;11.90;;;15.70;99.90;;;;;;5074352;28;20098;-72
2022/07/10 06:19:31;;;;;;;19.17;11.48;;;15.70;99.90;;;;;;5073484;28;20036;-72
2022/07/10 06:24:43;;;;;;;17.45;11.80;;;15.80;99.90;;;;;;5074260;28;20052;-72
2022/07/10 06:27:10;;;;;;;20.30;12.45;;;15.80;99.90;;;;;;5073538;28;20106;-73
2022/07/10 06:29:37;;;;;;;15.48;10.80;;;15.70;99.90;;;;;;5073689;28;20044;-72
2022/07/10 06:32:04;;;;;;;16.27;11.07;;;15.70;99.90;;;;;;5053508;28;20041;-72
2022/07/10 06:34:31;;;;;;;14.80;12.43;;;15.70;99.90;;;;;;5053799;28;20049;-73
2022/07/10 06:36:58;;;;;;;14.52;11.60;;;15.70;99.90;;;;;;5059040;28;20049;-73
2022/07/10 06:39:25;;;;;;;20.15;12.23;;;15.80;99.90;;;;;;5073902;28;20059;-73
2022/07/10 06:41:51;;;;;;;15.13;11.35;;;15.90;99.90;;;;;;5073471;28;20123;-73
2022/07/10 06:44:18;;;;;;;17.00;12.07;;;16.00;99.90;;;;;;5073696;28;20037;-73
2022/07/10 06:47:55;;;;;;;16.10;11.00;;;16.20;99.90;;;;;;5072935;28;20059;-73
2022/07/10 06:49:32;;;;;;;17.00;11.65;;;16.30;99.90;;;;;;5073558;28;20408;-72
2022/07/10 06:51:59;;;;;;;14.90;10.10;;;16.30;99.90;;;;;;5073338;28;20052;-73
2022/07/10 06:54:26;;;;;;;12.38;10.20;;;16.30;99.90;;;;;;5073741;28;20036;-73
2022/07/10 06:56:53;;;;;;;14.05;10.65;;;16.20;99.90;;;;;;5072873;28;20040;-73
2022/07/10 06:59:20;;;;;;;14.55;11.05;;;16.20;99.90;;;;;;5051827;28;20500;-73
2022/07/10 07:01:47;;;;;;;12.38;10.30;;;16.10;99.90;;;;;;5052871;28;20390;-73
2022/07/10 07:04:13;;;;;;;15.07;10.25;;;16.00;99.90;;;;;;5051627;28;20060;-73
2022/07/10 07:06:40;;;;;;;14.35;10.63;;;15.90;99.90;;;;;;5070075;28;20516;-73
2022/07/10 07:09:07;;;;;;;15.95;11.25;;;15.80;99.90;;;;;;5073441;28;20055;-73
2022/07/10 07:11:33;;;;;;;15.45;11.98;;;15.80;99.90;;;;;;5072744;28;20040;-73
2022/07/10 07:14:00;;;;;;;12.23;9.55;;;15.80;99.90;;;;;;5072255;28;20056;-73
2022/07/10 07:16:38;;;;;;;13.85;11.38;;;15.80;99.90;;;;;;5073144;28;20044;-73
2022/07/10 07:19:05;;;;;;;16.55;9.98;;;15.90;99.90;;;;;;5073263;28;20044;-73
2022/07/10 07:24:18;;;;;;;16.00;10.48;;;15.90;99.90;;;;;;5066692;28;20040;-73
2022/07/10 07:26:48;;;;;;;16.80;11.63;;;15.90;99.90;;;;;;5072815;28;20382;-73
2022/07/10 07:29:16;;;;;;;14.93;11.57;;;15.90;99.90;;;;;;5072958;28;20481;-73
2022/07/10 07:31:43;;;;;;;13.95;11.38;;;15.90;99.90;;;;;;5071701;28;20110;-73
2022/07/10 07:34:10;;;;;;;14.13;10.40;;;16.00;99.90;;;;;;5072715;28;20041;-73
2022/07/10 07:36:37;;;;;;;12.93;9.85;;;16.00;99.90;;;;;;5072741;28;20055;-73
2022/07/10 07:39:05;;;;;;;12.65;10.65;;;15.90;99.90;;;;;;5072736;28;20099;-73
2022/07/10 07:41:31;;;;;;;;;;;15.90;99.90;;;;;;5071749;28;20040;-73
2022/07/10 07:43:58;;;;;;;13.98;10.45;;;15.90;99.90;;;;;;5072053;28;19921;-73
2022/07/10 07:46:25;;;;;;;14.70;11.07;;;16.10;99.90;;;;;;5072648;28;20078;-73
2022/07/10 07:48:52;;;;;;;16.58;11.23;;;16.20;99.90;;;;;;5071950;28;20082;-73
2022/07/10 07:51:18;;;;;;;17.13;10.80;;;16.30;99.90;;;;;;5071675;28;20052;-73
2022/07/10 07:53:45;;;;;;;12.10;9.45;;;16.50;99.90;;;;;;5051149;28;20041;-73
2022/07/10 07:56:12;;;;;;;10.85;8.65;;;16.60;99.90;;;;;;5052190;28;20033;-73
2022/07/10 07:58:39;;;;;;;12.88;10.32;;;16.70;99.90;;;;;;5065289;28;20082;-74
2022/07/10 08:01:06;;;;;;;14.85;10.27;;;16.60;99.90;;;;;;5071712;28;20067;-74
2022/07/10 08:03:33;;;;;;;16.65;9.45;;;16.50;99.90;;;;;;5072287;28;20044;-73
2022/07/10 08:06:20;;;;;;;14.73;10.15;;;16.30;99.90;;;;;;5072267;28;20118;-72
2022/07/10 08:08:46;;;;;;;12.25;10.52;;;16.20;99.90;;;;;;5071469;28;20045;-73
2022/07/10 08:11:13;;;;;;;14.18;9.80;;;16.20;99.90;;;;;;5071273;28;20093;-72
2022/07/10 08:13:40;;;;;;;12.88;10.10;;;16.30;99.90;;;;;;5072111;28;20048;-72
2022/07/10 08:16:06;;;;;;;13.85;10.40;;;16.50;99.90;;;;;;5071558;28;20036;-73
2022/07/10 08:18:35;;;;;;;12.93;10.88;;;16.60;99.90;;;;;;5071735;28;20040;-72
2022/07/10 08:21:02;;;;;;;15.40;11.02;;;16.60;99.90;;;;;;5071410;28;20055;-73
2022/07/10 08:23:29;;;;;;;14.50;10.00;;;16.70;99.90;;;;;;5071957;28;20048;-73
2022/07/10 08:25:55;;;;;;;15.68;9.95;;;16.70;99.90;;;;;;5070997;28;20055;-73
2022/07/10 08:28:22;;;;;;;16.50;11.63;;;16.60;99.90;;;;;;5071709;28;20052;-73
2022/07/10 08:30:50;;;;;;;15.18;10.82;;;16.50;99.90;;;;;;5071263;28;20115;-73
2022/07/10 08:33:17;;;;;;;14.75;11.45;;;16.20;99.90;;;;;;5071084;28;20415;-72
2022/07/10 08:35:44;;;;;;;17.50;10.98;;;16.00;99.90;;;;;;5071303;28;20044;-73
2022/07/10 08:38:10;;;;;;;16.23;11.38;;;15.90;99.90;;;;;;5071680;28;20185;-73
2022/07/10 08:40:38;;;;;;;14.45;11.02;;;15.80;99.90;;;;;;5070930;28;20075;-73
2022/07/10 08:43:05;;;;;;;;;;;16.00;99.90;;;;;;5071494;28;20048;-73
2022/07/10 08:45:36;;;;;;;16.55;12.13;;;16.10;99.90;;;;;;5071263;28;19927;-73
2022/07/10 08:48:06;;;;;;;13.85;11.25;;;16.30;99.90;;;;;;5071515;28;20497;-74
2022/07/10 08:50:37;;;;;;;17.60;10.73;;;16.40;99.90;;;;;;5070426;28;20048;-73
2022/07/10 08:53:16;;;;;;;13.82;10.68;;;16.60;99.90;;;;;;5063020;28;20428;-73
2022/07/10 08:55:43;;;;;;;14.90;9.73;;;16.70;99.90;;;;;;5070422;28;20055;-73
2022/07/10 08:58:11;;;;;;;15.32;10.30;;;16.70;99.90;;;;;;5071276;28;20048;-73
2022/07/10 09:00:38;;;;;;;15.13;10.55;;;16.60;99.90;;;;;;5070207;28;20043;-73
2022/07/10 09:03:05;;;;;;;16.15;10.25;;;16.40;99.90;;;;;;5063130;28;20097;-73
2022/07/10 09:05:32;;;;;;;13.70;10.20;;;16.30;99.90;;;;;;5071335;28;20044;-73
2022/07/10 09:07:58;;;;;;;17.85;10.35;;;16.30;99.90;;;;;;5053135;28;20052;-74
2022/07/10 09:10:27;;;;;;;11.82;9.55;;;16.30;99.90;;;;;;5070151;28;20052;-73
2022/07/10 09:13:00;;;;;;;13.40;9.82;;;16.10;99.90;;;;;;5064824;28;20044;-73
2022/07/10 09:15:32;;;;;;;17.98;12.13;;;16.10;99.90;;;;;;5071226;28;20037;-72
2022/07/10 09:18:02;;;;;;;16.80;11.32;;;16.20;99.90;;;;;;5052207;22;20060;-75
2022/07/10 09:20:40;;;;;;;9.40;8.10;;;16.30;99.90;;;;;;5029807;28;20139;-74
2022/07/10 09:23:18;;;;;;;18.05;10.05;;;16.40;99.90;;;;;;5031243;28;20125;-75
2022/07/10 09:25:47;;;;;;;14.05;9.25;;;16.40;99.90;;;;;;5024404;28;20034;-73
2022/07/10 09:28:17;;;;;;;14.77;9.38;;;16.30;99.90;;;;;;5031009;28;20092;-74
2022/07/10 09:30:45;;;;;;;11.70;8.68;;;16.30;99.90;;;;;;5042899;28;20037;-73
2022/07/10 09:33:33;;;;;;;12.90;9.93;;;16.30;99.90;;;;;;5050191;28;20040;-74
2022/07/10 09:36:12;;;;;;;10.63;7.70;;;16.30;99.90;;;;;;5036337;28;20414;-74
2022/07/10 09:38:54;;;;;;;10.02;8.23;;;16.40;99.90;;;;;;5042922;28;20064;-74
2022/07/10 09:41:26;;;;;;;10.27;7.35;;;16.80;99.90;;;;;;5050313;28;20045;-75
2022/07/10 09:44:04;;;;;;;9.85;7.65;;;17.30;99.90;;;;;;5031330;28;20502;-75
2022/07/10 09:46:38;;;;;;;;;;;17.50;99.90;;;;;;5046360;28;20028;-75
2022/07/10 09:49:06;;;;;;;9.77;7.70;;;17.70;99.90;;;;;;5032538;28;20309;-75
2022/07/10 09:51:39;;;;;;;11.93;7.85;;;17.90;99.90;;;;;;5041363;28;20375;-76
2022/07/10 09:54:14;;;;;;;7.00;6.07;;;18.30;99.90;;;;;;5044425;28;20041;-77
2022/07/10 09:56:43;;;;;;;7.60;6.30;;;18.50;99.90;;;;;;5050397;28;20041;-79
2022/07/10 09:59:12;;;;;;;12.20;6.55;;;18.90;99.90;;;;;;5049412;28;20048;-78
2022/07/10 10:01:47;;;;;;;9.82;5.95;;;19.10;99.90;;;;;;5043128;28;20033;-78
2022/07/10 10:04:16;;;;;;;6.50;5.75;;;19.10;99.90;;;;;;5045201;28;20083;-79
2022/07/10 10:06:45;;;;;;;6.38;4.72;;;19.30;99.90;;;;;;5049780;28;20037;-77
2022/07/10 10:09:31;;;;;;;5.25;4.32;;;19.70;99.90;;;;;;5049092;28;20040;-79
2022/07/10 10:12:05;;;;;;;6.45;4.18;;;20.00;99.90;;;;;;5049075;28;20037;-76
2022/07/10 10:14:33;;;;;;;4.30;3.90;;;20.60;99.90;;;;;;5015196;28;20044;-76
2022/07/10 10:17:01;;;;;;;4.97;3.67;;;20.50;99.90;;;;;;5023184;28;20061;-75
2022/07/10 10:22:18;;;;;;;6.75;3.90;;;20.00;99.90;;;;;;5014391;28;20049;-74
2022/07/10 10:24:46;;;;;;;7.85;4.68;;;20.00;99.90;;;;;;5014310;28;20048;-76
2022/07/10 10:27:14;;;;;;;4.50;3.50;;;19.80;99.90;;;;;;5008174;28;20049;-76
2022/07/10 10:29:43;;;;;;;5.60;3.90;;;19.50;99.90;;;;;;5016429;28;20034;-74
2022/07/10 10:32:10;;;;;;;10.10;4.22;;;19.10;99.90;;;;;;5033816;28;20037;-74
2022/07/10 10:34:41;;;;;;;;;;;18.80;99.90;;;;;;5034470;28;20045;-77
2022/07/10 10:37:37;;;;;;;5.53;4.60;;;18.60;99.90;;;;;;5027618;28;19928;-74
2022/07/10 10:40:09;;;;;;;7.93;5.30;;;18.30;99.90;;;;;;5007554;28;20046;-74
2022/07/10 10:42:38;;;;;;;6.85;4.90;;;18.30;99.90;;;;;;5034027;28;20050;-74
2022/07/10 10:45:32;;;;;;;6.38;4.80;;;18.10;99.90;;;;;;5030685;28;20041;-75
2022/07/10 10:48:05;;;;;;;7.35;4.68;;;17.90;99.90;;;;;;5033659;28;20063;-72
2022/07/10 10:50:53;;;;;;;8.90;4.55;;;17.80;99.90;;;;;;5033575;28;20111;-73
2022/07/10 10:53:28;;;;;;;7.70;4.90;;;17.60;99.90;;;;;;5028466;28;20037;-73
2022/07/10 10:56:04;;;;;;;5.45;4.60;;;17.50;99.90;;;;;;5032587;28;20112;-75
2022/07/10 10:58:39;;;;;;;9.23;4.80;;;17.30;99.90;;;;;;5033709;28;20033;-62
2022/07/10 11:01:20;;;;;;;7.60;4.47;;;17.20;99.90;;;;;;5033414;28;20041;-61
2022/07/10 11:04:05;;;;;;;6.82;4.38;;;17.20;99.90;;;;;;5027011;28;20046;-62
2022/07/10 11:06:49;;;;;;;7.25;4.18;;;17.30;99.90;;;;;;5033407;28;20046;-62
2022/07/10 11:09:26;;;;;;;8.70;4.47;;;17.30;99.90;;;;;;5033350;28;20124;-62
2022/07/10 11:12:06;;;;;;;6.78;4.25;;;17.70;99.90;;;;;;5033250;28;20124;-62
2022/07/10 11:14:39;;;;;;;7.45;4.00;;;18.70;99.90;;;;;;5031336;28;20517;-62
2022/07/10 11:17:08;;;;;;;7.00;3.35;;;19.70;99.90;;;;;;5013294;28;20050;-62
2022/07/10 11:19:35;;;;;;;3.70;3.22;;;20.40;99.90;;;;;;5012505;28;20052;-62
2022/07/10 11:22:38;;;;;;;5.28;2.90;;;20.70;99.90;;;;;;5026002;28;20049;-62
2022/07/10 11:25:24;;;;;;;5.07;2.80;;;20.80;99.90;;;;;;5049686;28;20502;-62
2022/07/10 11:28:11;;;;;;;5.47;3.03;;;21.30;99.90;;;;;;5053107;28;20072;-62
2022/07/10 11:30:45;;;;;;;7.15;2.50;;;20.80;99.90;;;;;;5043935;28;20041;-62
2022/07/10 11:33:13;;;;;;;7.18;3.08;;;20.30;99.90;;;;;;5051472;28;20056;-62
2022/07/10 11:35:43;;;;;;;2.92;2.22;;;19.80;99.90;;;;;;5052365;28;20045;-62
2022/07/10 11:38:10;;;;;;;3.28;2.72;;;19.60;99.90;;;;;;5047569;28;20045;-62
2022/07/10 11:40:37;;;;;;;2.72;2.53;;;19.50;99.90;;;;;;5046801;28;20033;-62
2022/07/10 11:43:06;;;;;;;3.40;2.50;;;19.40;99.90;;;;;;5042593;28;20045;-62
2022/07/10 11:45:37;;;;;;;3.85;3.00;;;19.60;99.90;;;;;;5052320;28;20059;-63
2022/07/10 11:48:04;;;;;;;6.20;2.90;;;19.70;99.90;;;;;;5033942;28;20406;-64
2022/07/10 11:50:38;;;;;;;3.40;2.80;;;19.40;99.90;;;;;;5032104;28;20494;-64
2022/07/10 11:53:05;;;;;;;7.15;2.83;;;19.10;99.90;;;;;;5032466;28;20037;-64
2022/07/10 11:55:36;;;;;;;3.92;2.80;;;18.90;99.90;;;;;;5032522;28;20041;-63
2022/07/10 11:58:18;;;;;;;3.35;3.03;;;18.80;99.90;;;;;;5036769;28;20568;-63
2022/07/10 12:00:59;;;;;;;3.05;2.30;;;19.00;99.90;;;;;;5031415;28;20037;-63
2022/07/10 12:03:25;;;;;;;4.93;2.40;;;19.30;99.90;;;;;;5042570;28;20029;-63
2022/07/10 12:06:00;;;;;;;4.25;2.38;;;19.40;99.90;;;;;;5044300;28;20090;-63
2022/07/10 12:08:27;;;;;;;3.90;2.20;;;19.70;99.90;;;;;;5050572;28;20041;-63
2022/07/10 12:10:54;;;;;;;2.85;2.47;;;19.80;99.90;;;;;;5033552;28;20033;-64
2022/07/10 12:13:21;;;;;;;5.90;2.33;;;19.70;99.90;;;;;;5045006;28;20045;-63
2022/07/10 12:15:48;;;;;;;3.75;2.20;;;19.40;99.90;;;;;;5047349;28;20071;-63
2022/07/10 12:18:17;;;;;;;3.22;2.50;;;19.00;99.90;;;;;;5021045;28;20038;-62
2022/07/10 12:20:47;;;;;;;8.25;3.08;;;18.60;99.90;;;;;;5021070;28;20048;-63
2022/07/10 12:23:18;;;;;;;2.20;2.00;;;18.30;99.90;;;;;;5020725;28;20099;-64
2022/07/10 12:25:50;;;;;;;2.70;2.38;;;18.00;99.90;;;;;;5005075;28;20410;-63
2022/07/10 12:28:17;;;;;;;3.00;2.70;;;17.80;99.90;;;;;;5018549;28;20089;-63
2022/07/10 12:30:51;;;;;;;3.85;2.78;;;17.70;99.90;;;;;;5022952;28;20100;-63
2022/07/10 12:33:23;;;;;;;4.10;2.17;;;17.60;99.90;;;;;;5026377;28;20049;-63
2022/07/10 12:35:51;;;;;;;4.90;2.00;;;17.60;99.90;;;;;;5023012;28;20049;-63
2022/07/10 12:38:20;;;;;;;5.90;2.28;;;17.90;99.90;;;;;;5030970;28;20061;-63
2022/07/10 12:40:47;;;;;;;4.65;2.60;;;18.20;99.90;;;;;;5023423;28;20060;-64
2022/07/10 12:43:26;;;;;;;3.58;2.17;;;18.50;99.90;;;;;;5023338;28;20114;-63
2022/07/10 12:46:15;;;;;;;3.53;2.28;;;18.90;99.90;;;;;;5027647;28;20045;-63
2022/07/10 12:49:03;;;;;;;2.80;2.13;;;19.30;99.90;;;;;;5030235;28;20052;-64
2022/07/10 12:51:32;;;;;;;5.57;1.95;;;19.60;99.90;;;;;;5029922;28;20084;-63
2022/07/10 12:54:32;;;;;;;3.55;2.30;;;19.70;99.90;;;;;;5035839;28;20111;-63
2022/07/10 12:57:00;;;;;;;2.83;2.20;;;20.10;99.90;;;;;;5026957;28;20169;-63
2022/07/10 12:59:31;;;;;;;3.38;2.08;;;20.30;99.90;;;;;;5032296;28;20049;-64
2022/07/10 13:01:58;;;;;;;6.63;2.17;;;20.40;99.90;;;;;;5030481;28;20041;-64
2022/07/10 13:04:30;;;;;;;;;;;20.30;99.90;;;;;;5027384;28;20045;-64